sensor_id;sensor_type;location;lat;lon;timestamp;pressure;altitude;pressure_sealevel;temperature;humidity
7309;BME280;3695;53.330;9.876;2022-08-11T00:02:14;134378.00;;;18.68;100.00
7309;BME280;3695;53.330;9.876;2022-08-11T00:04:41;134552.59;;;18.73;100.00
7309;BME280;3695;53.330;9.876;2022-08-11T00:07:10;134466.13;;;18.69;100.00
7309;BME280;3695;53.330;9.876;2022-08-11T00:09:37;134204.53;;;18.61;100.00
7309;BME280;3695;53.330;9.876;2022-08-11T00:12:11;134039.41;;;18.56;100.00
7309;BME280;3695;53.330;9.876;2022-08-11T00:14:39;133992.84;;;18.58;100.00
7309;BME280;3695;53.330;9.876;2022-08-11T00:17:08;134003.34;;;18.59;100.00
7309;BME280;3695;53.330;9.876;2022-08-11T00:19:38;133800.63;;;18.52;100.00
7309;BME280;3695;53.330;9.876;2022-08-11T00:22:06;133502.63;;;18.48;100.00
7309;BME280;3695;53.330;9.876;2022-08-11T00:24:37;133198.09;;;18.40;100.00
7309;BME280;3695;53.330;9.876;2022-08-11T00:27:05;133296.06;;;18.43;100.00
7309;BME280;3695;53.330;9.876;2022-08-11T00:29:32;132988.84;;;18.36;100.00
7309;BME280;3695;53.330;9.876;2022-08-11T00:32:02;133441.13;;;18.49;100.00
7309;BME280;3695;53.330;9.876;2022-08-11T00:34:33;132975.00;;;18.36;100.00
7309;BME280;3695;53.330;9.876;2022-08-11T00:37:04;132773.59;;;18.30;100.00
7309;BME280;3695;53.330;9.876;2022-08-11T00:39:45;132900.81;;;18.35;100.00
7309;BME280;3695;53.330;9.876;2022-08-11T00:42:19;132665.13;;;18.28;100.00
7309;BME280;3695;53.330;9.876;2022-08-11T00:45:00;132348.72;;;18.20;100.00
7309;BME280;3695;53.330;9.876;2022-08-11T00:47:41;132433.84;;;18.23;100.00
7309;BME280;3695;53.330;9.876;2022-08-11T00:50:14;132308.28;;;18.20;100.00
7309;BME280;3695;53.330;9.876;2022-08-11T00:53:06;131664.16;;;18.05;100.00
7309;BME280;3695;53.330;9.876;2022-08-11T00:56:17;131747.03;;;18.08;100.00
7309;BME280;3695;53.330;9.876;2022-08-11T01:01:56;132248.59;;;18.18;100.00
7309;BME280;3695;53.330;9.876;2022-08-11T01:04:55;132807.25;;;18.34;100.00
7309;BME280;3695;53.330;9.876;2022-08-11T01:07:59;132118.72;;;18.13;100.00
7309;BME280;3695;53.330;9.876;2022-08-11T01:10:50;132064.53;;;18.11;100.00
7309;BME280;3695;53.330;9.876;2022-08-11T01:13:49;132020.28;;;18.11;100.00
7309;BME280;3695;53.330;9.876;2022-08-11T01:17:03;131782.03;;;18.05;100.00
7309;BME280;3695;53.330;9.876;2022-08-11T01:19:49;131413.84;;;17.98;100.00
7309;BME280;3695;53.330;9.876;2022-08-11T01:23:02;131097.19;;;17.91;100.00
7309;BME280;3695;53.330;9.876;2022-08-11T01:26:14;131115.97;;;17.92;100.00
7309;BME280;3695;53.330;9.876;2022-08-11T01:29:13;130766.88;;;17.84;100.00
7309;BME280;3695;53.330;9.876;2022-08-11T01:32:37;130571.34;;;17.80;100.00
7309;BME280;3695;53.330;9.876;2022-08-11T01:35:43;129988.28;;;17.69;100.00
7309;BME280;3695;53.330;9.876;2022-08-11T01:38:44;129642.75;;;17.62;100.00
7309;BME280;3695;53.330;9.876;2022-08-11T01:41:27;129542.19;;;17.61;100.00
7309;BME280;3695;53.330;9.876;2022-08-11T01:44:33;129884.16;;;17.72;100.00
7309;BME280;3695;53.330;9.876;2022-08-11T01:47:23;129383.22;;;17.59;100.00
7309;BME280;3695;53.330;9.876;2022-08-11T01:50:14;128714.69;;;17.46;100.00
7309;BME280;3695;53.330;9.876;2022-08-11T01:53:00;128851.72;;;17.52;100.00
7309;BME280;3695;53.330;9.876;2022-08-11T01:55:32;129003.22;;;17.57;100.00
7309;BME280;3695;53.330;9.876;2022-08-11T01:58:07;128280.13;;;17.39;100.00
7309;BME280;3695;53.330;9.876;2022-08-11T02:00:49;128401.81;;;17.43;100.00
7309;BME280;3695;53.330;9.876;2022-08-11T02:03:23;127739.28;;;17.26;100.00
7309;BME280;3695;53.330;9.876;2022-08-11T02:05:59;127503.22;;;17.24;100.00
7309;BME280;3695;53.330;9.876;2022-08-11T02:08:57;127130.84;;;17.17;100.00
7309;BME280;3695;53.330;9.876;2022-08-11T02:11:30;126843.09;;;17.10;100.00
7309;BME280;3695;53.330;9.876;2022-08-11T02:14:01;126906.63;;;17.14;100.00
7309;BME280;3695;53.330;9.876;2022-08-11T02:16:38;126531.97;;;17.05;100.00
7309;BME280;3695;53.330;9.876;2022-08-11T02:19:12;126717.22;;;17.11;100.00
7309;BME280;3695;53.330;9.876;2022-08-11T02:22:08;126269.50;;;16.99;100.00
7309;BME280;3695;53.330;9.876;2022-08-11T02:24:59;126953.88;;;17.16;100.00
7309;BME280;3695;53.330;9.876;2022-08-11T02:27:35;126036.44;;;16.93;100.00
7309;BME280;3695;53.330;9.876;2022-08-11T02:30:07;126325.38;;;17.03;100.00
7309;BME280;3695;53.330;9.876;2022-08-11T02:32:40;125639.75;;;16.87;100.00
7309;BME280;3695;53.330;9.876;2022-08-11T02:35:35;126002.34;;;16.97;100.00
7309;BME280;3695;53.330;9.876;2022-08-11T02:38:17;125169.81;;;16.77;100.00
7309;BME280;3695;53.330;9.876;2022-08-11T02:40:56;124916.31;;;16.73;100.00
7309;BME280;3695;53.330;9.876;2022-08-11T02:43:34;124901.81;;;16.74;100.00
7309;BME280;3695;53.330;9.876;2022-08-11T02:46:17;124557.84;;;16.67;100.00
7309;BME280;3695;53.330;9.876;2022-08-11T02:49:04;124796.09;;;16.73;100.00
7309;BME280;3695;53.330;9.876;2022-08-11T02:52:14;124443.84;;;16.66;100.00
7309;BME280;3695;53.330;9.876;2022-08-11T02:54:49;124008.44;;;16.57;100.00
7309;BME280;3695;53.330;9.876;2022-08-11T02:57:27;123842.56;;;16.54;100.00
7309;BME280;3695;53.330;9.876;2022-08-11T02:59:59;123198.34;;;16.40;100.00
7309;BME280;3695;53.330;9.876;2022-08-11T03:02:49;123181.38;;;16.43;100.00
7309;BME280;3695;53.330;9.876;2022-08-11T03:05:29;122784.31;;;16.34;100.00
7309;BME280;3695;53.330;9.876;2022-08-11T03:08:06;122823.41;;;16.37;100.00
7309;BME280;3695;53.330;9.876;2022-08-11T03:10:45;122719.28;;;16.34;100.00
7309;BME280;3695;53.330;9.876;2022-08-11T03:13:40;122483.25;;;16.28;100.00
7309;BME280;3695;53.330;9.876;2022-08-11T03:16:28;122560.13;;;16.32;100.00
7309;BME280;3695;53.330;9.876;2022-08-11T03:19:21;122551.84;;;16.32;100.00
7309;BME280;3695;53.330;9.876;2022-08-11T03:22:00;122157.75;;;16.23;100.00
7309;BME280;3695;53.330;9.876;2022-08-11T03:24:36;122299.88;;;16.28;100.00
7309;BME280;3695;53.330;9.876;2022-08-11T03:27:08;122137.75;;;16.24;100.00
7309;BME280;3695;53.330;9.876;2022-08-11T03:29:43;122736.91;;;16.41;100.00
7309;BME280;3695;53.330;9.876;2022-08-11T03:32:21;122303.38;;;16.27;100.00
7309;BME280;3695;53.330;9.876;2022-08-11T03:34:52;122176.28;;;16.24;100.00
7309;BME280;3695;53.330;9.876;2022-08-11T03:37:40;122015.19;;;16.21;100.00
7309;BME280;3695;53.330;9.876;2022-08-11T03:40:34;122284.13;;;16.27;100.00
7309;BME280;3695;53.330;9.876;2022-08-11T03:43:33;122790.94;;;16.40;100.00
7309;BME280;3695;53.330;9.876;2022-08-11T03:46:07;122487.28;;;16.30;100.00
7309;BME280;3695;53.330;9.876;2022-08-11T03:48:45;122093.22;;;16.21;100.00
7309;BME280;3695;53.330;9.876;2022-08-11T03:51:21;122096.22;;;16.23;100.00
7309;BME280;3695;53.330;9.876;2022-08-11T03:54:03;122227.06;;;16.26;100.00
7309;BME280;3695;53.330;9.876;2022-08-11T04:00:04;122005.69;;;16.24;100.00
7309;BME280;3695;53.330;9.876;2022-08-11T04:15:12;121595.53;;;16.17;100.00
7309;BME280;3695;53.330;9.876;2022-08-11T04:18:19;121404.00;;;16.12;100.00
7309;BME280;3695;53.330;9.876;2022-08-11T04:21:11;121811.09;;;16.23;100.00
7309;BME280;3695;53.330;9.876;2022-08-11T04:24:19;122106.53;;;16.29;100.00
7309;BME280;3695;53.330;9.876;2022-08-11T04:30:14;122221.56;;;16.26;100.00
7309;BME280;3695;53.330;9.876;2022-08-11T04:33:10;122563.69;;;16.36;100.00
7309;BME280;3695;53.330;9.876;2022-08-11T04:35:52;122777.44;;;16.42;100.00
7309;BME280;3695;53.330;9.876;2022-08-11T04:39:02;122382.97;;;16.31;100.00
7309;BME280;3695;53.330;9.876;2022-08-11T04:45:10;123080.66;;;16.49;100.00
7309;BME280;3695;53.330;9.876;2022-08-11T04:47:53;123556.63;;;16.61;100.00
7309;BME280;3695;53.330;9.876;2022-08-11T04:51:00;123771.34;;;16.65;100.00
7309;BME280;3695;53.330;9.876;2022-08-11T04:53:59;123280.19;;;16.51;100.00
7309;BME280;3695;53.330;9.876;2022-08-11T04:56:47;123545.34;;;16.59;100.00
7309;BME280;3695;53.330;9.876;2022-08-11T04:59:51;123747.28;;;16.64;100.00
7309;BME280;3695;53.330;9.876;2022-08-11T05:03:08;123637.53;;;16.61;100.00
7309;BME280;3695;53.330;9.876;2022-08-11T05:06:06;124933.69;;;16.89;100.00
7309;BME280;3695;53.330;9.876;2022-08-11T05:08:53;125233.75;;;16.96;100.00
7309;BME280;3695;53.330;9.876;2022-08-11T05:14:35;125879.69;;;17.07;100.00
7309;BME280;3695;53.330;9.876;2022-08-11T05:17:26;126738.13;;;17.25;100.00
7309;BME280;3695;53.330;9.876;2022-08-11T05:20:14;126709.13;;;17.23;100.00
7309;BME280;3695;53.330;9.876;2022-08-11T05:23:03;126940.97;;;17.27;100.00
7309;BME280;3695;53.330;9.876;2022-08-11T05:25:52;127190.88;;;17.33;100.00
7309;BME280;3695;53.330;9.876;2022-08-11T05:28:41;128669.53;;;17.70;100.00
7309;BME280;3695;53.330;9.876;2022-08-11T05:31:34;128086.66;;;17.52;100.00
7309;BME280;3695;53.330;9.876;2022-08-11T05:34:22;128832.53;;;17.70;100.00
7309;BME280;3695;53.330;9.876;2022-08-11T05:37:11;130339.91;;;18.02;100.00
7309;BME280;3695;53.330;9.876;2022-08-11T05:39:44;131420.63;;;18.17;100.00
7309;BME280;3695;53.330;9.876;2022-08-11T05:42:30;133670.22;;;18.65;100.00
7309;BME280;3695;53.330;9.876;2022-08-11T05:45:16;137061.69;;;19.42;100.00
7309;BME280;3695;53.330;9.876;2022-08-11T05:48:03;135612.88;;;18.81;100.00
7309;BME280;3695;53.330;9.876;2022-08-11T05:50:52;134356.47;;;18.52;100.00
7309;BME280;3695;53.330;9.876;2022-08-11T05:53:49;134025.09;;;18.50;100.00
7309;BME280;3695;53.330;9.876;2022-08-11T05:56:34;133508.81;;;18.42;100.00
7309;BME280;3695;53.330;9.876;2022-08-11T05:59:11;133569.72;;;18.44;100.00
7309;BME280;3695;53.330;9.876;2022-08-11T06:01:40;133828.97;;;18.49;100.00
7309;BME280;3695;53.330;9.876;2022-08-11T06:04:15;134683.44;;;18.70;100.00
7309;BME280;3695;53.330;9.876;2022-08-11T06:06:52;134920.72;;;18.74;100.00
7309;BME280;3695;53.330;9.876;2022-08-11T06:09:28;135303.41;;;18.87;100.00
7309;BME280;3695;53.330;9.876;2022-08-11T06:11:58;134983.38;;;18.76;100.00
7309;BME280;3695;53.330;9.876;2022-08-11T06:14:26;134980.63;;;18.79;100.00
7309;BME280;3695;53.330;9.876;2022-08-11T06:16:56;135161.44;;;18.91;100.00
7309;BME280;3695;53.330;9.876;2022-08-11T06:19:32;135922.81;;;19.09;100.00
7309;BME280;3695;53.330;9.876;2022-08-11T06:22:01;135941.63;;;19.05;100.00
7309;BME280;3695;53.330;9.876;2022-08-11T06:24:28;136145.88;;;19.07;100.00
7309;BME280;3695;53.330;9.876;2022-08-11T06:26:57;136489.00;;;19.14;100.00
7309;BME280;3695;53.330;9.876;2022-08-11T06:29:25;137441.41;;;19.38;100.00
7309;BME280;3695;53.330;9.876;2022-08-11T06:31:56;137691.63;;;19.43;100.00
7309;BME280;3695;53.330;9.876;2022-08-11T06:34:31;138657.38;;;19.65;100.00
7309;BME280;3695;53.330;9.876;2022-08-11T06:37:18;139471.19;;;19.80;100.00
7309;BME280;3695;53.330;9.876;2022-08-11T06:39:49;139812.34;;;19.91;100.00
7309;BME280;3695;53.330;9.876;2022-08-11T06:42:32;140749.22;;;20.10;100.00
7309;BME280;3695;53.330;9.876;2022-08-11T06:45:06;140534.53;;;20.05;100.00
7309;BME280;3695;53.330;9.876;2022-08-11T06:47:41;140466.19;;;20.00;100.00
7309;BME280;3695;53.330;9.876;2022-08-11T06:50:15;141354.13;;;20.21;100.00
7309;BME280;3695;53.330;9.876;2022-08-11T06:53:03;141330.91;;;20.17;100.00
7309;BME280;3695;53.330;9.876;2022-08-11T06:55:33;141312.13;;;20.18;100.00
7309;BME280;3695;53.330;9.876;2022-08-11T06:58:20;142704.91;;;20.52;100.00
7309;BME280;3695;53.330;9.876;2022-08-11T07:01:08;142433.81;;;20.45;100.00
7309;BME280;3695;53.330;9.876;2022-08-11T07:03:39;142298.34;;;20.39;100.00
7309;BME280;3695;53.330;9.876;2022-08-11T07:06:27;142551.69;;;20.42;100.00
7309;BME280;3695;53.330;9.876;2022-08-11T07:09:20;142308.94;;;20.34;100.00
7309;BME280;3695;53.330;9.876;2022-08-11T07:12:37;143706.78;;;20.72;100.00
7309;BME280;3695;53.330;9.876;2022-08-11T07:15:27;144484.44;;;20.90;100.00
7309;BME280;3695;53.330;9.876;2022-08-11T07:18:11;144687.19;;;20.95;100.00
7309;BME280;3695;53.330;9.876;2022-08-11T07:21:14;145307.72;;;21.06;100.00
7309;BME280;3695;53.330;9.876;2022-08-11T07:24:03;145191.34;;;21.01;100.00
7309;BME280;3695;53.330;9.876;2022-08-11T07:26:52;145208.09;;;21.01;100.00
7309;BME280;3695;53.330;9.876;2022-08-11T07:29:37;145630.66;;;21.12;100.00
7309;BME280;3695;53.330;9.876;2022-08-11T07:32:13;147724.16;;;21.68;100.00
7309;BME280;3695;53.330;9.876;2022-08-11T07:34:47;147174.72;;;21.50;100.00
7309;BME280;3695;53.330;9.876;2022-08-11T07:37:17;147199.09;;;21.52;100.00
7309;BME280;3695;53.330;9.876;2022-08-11T07:39:46;147213.84;;;21.50;100.00
7309;BME280;3695;53.330;9.876;2022-08-11T07:42:15;147772.03;;;21.67;100.00
7309;BME280;3695;53.330;9.876;2022-08-11T07:44:45;147528.75;;;21.63;100.00
7309;BME280;3695;53.330;9.876;2022-08-11T07:47:31;148154.22;;;21.77;100.00
7309;BME280;3695;53.330;9.876;2022-08-11T07:50:16;148548.44;;;21.85;100.00
7309;BME280;3695;53.330;9.876;2022-08-11T07:53:03;148919.00;;;21.97;100.00
7309;BME280;3695;53.330;9.876;2022-08-11T07:55:30;148737.56;;;21.88;100.00
7309;BME280;3695;53.330;9.876;2022-08-11T07:57:58;148952.56;;;21.97;100.00
7309;BME280;3695;53.330;9.876;2022-08-11T08:00:44;149451.41;;;22.12;100.00
7309;BME280;3695;53.330;9.876;2022-08-11T08:03:29;149350.31;;;22.13;100.00
7309;BME280;3695;53.330;9.876;2022-08-11T08:06:14;149880.94;;;22.20;100.00
7309;BME280;3695;53.330;9.876;2022-08-11T08:09:00;150683.22;;;22.42;100.00
7309;BME280;3695;53.330;9.876;2022-08-11T08:11:45;150772.94;;;22.37;100.00
7309;BME280;3695;53.330;9.876;2022-08-11T08:14:30;151446.97;;;22.58;100.00
7309;BME280;3695;53.330;9.876;2022-08-11T08:17:15;152276.13;;;22.79;100.00
7309;BME280;3695;53.330;9.876;2022-08-11T08:19:59;152097.91;;;22.75;100.00
7309;BME280;3695;53.330;9.876;2022-08-11T08:22:28;152835.31;;;22.94;100.00
7309;BME280;3695;53.330;9.876;2022-08-11T08:24:56;153140.28;;;23.02;100.00
7309;BME280;3695;53.330;9.876;2022-08-11T08:27:23;152991.91;;;23.01;100.00
7309;BME280;3695;53.330;9.876;2022-08-11T08:29:51;153408.69;;;23.15;100.00
7309;BME280;3695;53.330;9.876;2022-08-11T08:32:44;153113.19;;;23.03;100.00
7309;BME280;3695;53.330;9.876;2022-08-11T08:35:11;153677.41;;;23.22;100.00
7309;BME280;3695;53.330;9.876;2022-08-11T08:37:37;153789.13;;;23.24;100.00
7309;BME280;3695;53.330;9.876;2022-08-11T08:40:07;154055.38;;;23.31;100.00
7309;BME280;3695;53.330;9.876;2022-08-11T08:42:38;154551.34;;;23.45;100.00
7309;BME280;3695;53.330;9.876;2022-08-11T08:45:08;155626.47;;;23.76;100.00
7309;BME280;3695;53.330;9.876;2022-08-11T08:47:38;155836.78;;;23.78;100.00
7309;BME280;3695;53.330;9.876;2022-08-11T08:50:10;155492.34;;;23.62;100.00
7309;BME280;3695;53.330;9.876;2022-08-11T08:52:41;156536.44;;;23.92;100.00
7309;BME280;3695;53.330;9.876;2022-08-11T08:55:15;156105.38;;;23.78;100.00
7309;BME280;3695;53.330;9.876;2022-08-11T08:57:44;155753.72;;;23.68;100.00
7309;BME280;3695;53.330;9.876;2022-08-11T09:00:14;156749.75;;;23.99;100.00
7309;BME280;3695;53.330;9.876;2022-08-11T09:02:42;156645.13;;;23.96;100.00
7309;BME280;3695;53.330;9.876;2022-08-11T09:05:10;157824.59;;;24.30;100.00
7309;BME280;3695;53.330;9.876;2022-08-11T09:07:38;157629.91;;;24.13;100.00
7309;BME280;3695;53.330;9.876;2022-08-11T09:10:07;158804.84;;;24.48;100.00
7309;BME280;3695;53.330;9.876;2022-08-11T09:12:38;158682.22;;;24.42;100.00
7309;BME280;3695;53.330;9.876;2022-08-11T09:15:07;158499.81;;;24.32;100.00
7309;BME280;3695;53.330;9.876;2022-08-11T09:17:38;158045.94;;;24.15;100.00
7309;BME280;3695;53.330;9.876;2022-08-11T09:20:07;158246.63;;;24.25;100.00
7309;BME280;3695;53.330;9.876;2022-08-11T09:22:35;158857.69;;;24.44;100.00
7309;BME280;3695;53.330;9.876;2022-08-11T09:25:21;158693.03;;;24.37;100.00
7309;BME280;3695;53.330;9.876;2022-08-11T09:28:12;158595.78;;;24.38;100.00
7309;BME280;3695;53.330;9.876;2022-08-11T09:30:40;158364.84;;;24.25;100.00
7309;BME280;3695;53.330;9.876;2022-08-11T09:33:09;159514.34;;;24.57;100.00
7309;BME280;3695;53.330;9.876;2022-08-11T09:35:37;159670.97;;;24.63;100.00
7309;BME280;3695;53.330;9.876;2022-08-11T09:38:10;159794.38;;;24.66;100.00
7309;BME280;3695;53.330;9.876;2022-08-11T09:40:55;160166.69;;;24.79;100.00
7309;BME280;3695;53.330;9.876;2022-08-11T09:43:24;160171.94;;;24.81;100.00
7309;BME280;3695;53.330;9.876;2022-08-11T09:46:08;160162.75;;;24.77;100.00
7309;BME280;3695;53.330;9.876;2022-08-11T09:48:42;160171.94;;;24.81;100.00
7309;BME280;3695;53.330;9.876;2022-08-11T09:51:10;160166.69;;;24.79;100.00
7309;BME280;3695;53.330;9.876;2022-08-11T09:53:39;160244.25;;;25.09;100.00
7309;BME280;3695;53.330;9.876;2022-08-11T09:56:11;160263.97;;;25.17;100.00
7309;BME280;3695;53.330;9.876;2022-08-11T09:58:57;160319.13;;;25.38;100.00
7309;BME280;3695;53.330;9.876;2022-08-11T10:01:29;160321.75;;;25.39;100.00
7309;BME280;3695;53.330;9.876;2022-08-11T10:03:59;160250.81;;;25.12;100.00
7309;BME280;3695;53.330;9.876;2022-08-11T10:06:27;160342.75;;;25.47;100.00
7309;BME280;3695;53.330;9.876;2022-08-11T10:09:16;160332.25;;;25.43;100.00
7309;BME280;3695;53.330;9.876;2022-08-11T10:11:44;160283.66;;;25.24;100.00
7309;BME280;3695;53.330;9.876;2022-08-11T10:14:14;160373.00;;;25.59;100.00
7309;BME280;3695;53.330;9.876;2022-08-11T10:17:02;160346.69;;;25.49;100.00
7309;BME280;3695;53.330;9.876;2022-08-11T10:19:32;160463.69;;;25.94;100.00
7309;BME280;3695;53.330;9.876;2022-08-11T10:21:59;160387.47;;;25.64;100.00
7309;BME280;3695;53.330;9.876;2022-08-11T10:24:43;160425.59;;;25.79;100.00
7309;BME280;3695;53.330;9.876;2022-08-11T10:27:28;160371.69;;;25.58;100.00
7309;BME280;3695;53.330;9.876;2022-08-11T10:29:56;160405.91;;;25.71;100.00
7309;BME280;3695;53.330;9.876;2022-08-11T10:32:40;160449.25;;;25.88;100.00
7309;BME280;3695;53.330;9.876;2022-08-11T10:35:26;160516.31;;;26.14;100.00
7309;BME280;3695;53.330;9.876;2022-08-11T10:37:53;160609.69;;;26.50;100.00
7309;BME280;3695;53.330;9.876;2022-08-11T10:40:21;160621.53;;;26.55;100.00
7309;BME280;3695;53.330;9.876;2022-08-11T10:42:49;160578.13;;;26.38;100.00
7309;BME280;3695;53.330;9.876;2022-08-11T10:45:35;160528.13;;;26.19;100.00
7309;BME280;3695;53.330;9.876;2022-08-11T10:48:21;160487.41;;;26.03;100.00
7309;BME280;3695;53.330;9.876;2022-08-11T10:50:50;160524.19;;;26.17;100.00
7309;BME280;3695;53.330;9.876;2022-08-11T10:53:35;160520.25;;;26.16;100.00
7309;BME280;3695;53.330;9.876;2022-08-11T10:56:21;160529.44;;;26.19;100.00
7309;BME280;3695;53.330;9.876;2022-08-11T10:59:07;160563.59;;;26.32;100.00
7309;BME280;3695;53.330;9.876;2022-08-11T11:01:39;160564.97;;;26.33;100.00
7309;BME280;3695;53.330;9.876;2022-08-11T11:04:07;160532.06;;;26.20;100.00
7309;BME280;3695;53.330;9.876;2022-08-11T11:06:42;160563.59;;;26.32;100.00
7309;BME280;3695;53.330;9.876;2022-08-11T11:09:15;160545.22;;;26.25;100.00
7309;BME280;3695;53.330;9.876;2022-08-11T11:11:47;160589.94;;;26.43;100.00
7309;BME280;3695;53.330;9.876;2022-08-11T11:14:34;160583.38;;;26.40;100.00
7309;BME280;3695;53.330;9.876;2022-08-11T11:17:27;160674.09;;;26.75;100.00
7309;BME280;3695;53.330;9.876;2022-08-11T11:20:15;160621.53;;;26.55;100.00
7309;BME280;3695;53.330;9.876;2022-08-11T11:22:43;160729.34;;;26.96;100.00
7309;BME280;3695;53.330;9.876;2022-08-11T11:25:21;160739.94;;;27.01;100.00
7309;BME280;3695;53.330;9.876;2022-08-11T11:27:59;160795.13;;;27.22;100.00
7309;BME280;3695;53.330;9.876;2022-08-11T11:30:35;160683.31;;;26.79;100.00
7309;BME280;3695;53.330;9.876;2022-08-11T11:33:11;160787.25;;;27.19;100.00
7309;BME280;3695;53.330;9.876;2022-08-11T11:35:48;160824.06;;;27.33;100.00
7309;BME280;3695;53.330;9.876;2022-08-11T11:38:20;160688.56;;;26.81;100.00
7309;BME280;3695;53.330;9.876;2022-08-11T11:40:47;160792.50;;;27.21;100.00
7309;BME280;3695;53.330;9.876;2022-08-11T11:43:34;160787.25;;;27.19;100.00
7309;BME280;3695;53.330;9.876;2022-08-11T11:46:04;160870.13;;;27.51;100.00
7309;BME280;3695;53.330;9.876;2022-08-11T11:48:34;160841.16;;;27.40;100.00
7309;BME280;3695;53.330;9.876;2022-08-11T11:51:02;160884.59;;;27.56;100.00
7309;BME280;3695;53.330;9.876;2022-08-11T11:53:29;160918.84;;;27.70;100.00
7309;BME280;3695;53.330;9.876;2022-08-11T11:55:56;160779.34;;;27.16;100.00
7309;BME280;3695;53.330;9.876;2022-08-11T11:58:25;160863.56;;;27.48;100.00
7309;BME280;3695;53.330;9.876;2022-08-11T12:01:10;160853.03;;;27.44;100.00
7309;BME280;3695;53.330;9.876;2022-08-11T12:03:47;160883.28;;;27.56;100.00
7309;BME280;3695;53.330;9.876;2022-08-11T12:06:16;160931.97;;;27.75;100.00
7309;BME280;3695;53.330;9.876;2022-08-11T12:08:43;160987.28;;;27.96;100.00
7309;BME280;3695;53.330;9.876;2022-08-11T12:11:14;161071.50;;;28.29;100.00
7309;BME280;3695;53.330;9.876;2022-08-11T12:14:01;161029.34;;;28.12;100.00
7309;BME280;3695;53.330;9.876;2022-08-11T12:16:30;161117.59;;;28.46;100.00
7309;BME280;3695;53.330;9.876;2022-08-11T12:18:59;161038.56;;;28.16;100.00
7309;BME280;3695;53.330;9.876;2022-08-11T12:21:27;161104.44;;;28.41;100.00
7309;BME280;3695;53.330;9.876;2022-08-11T12:23:55;161017.50;;;28.08;100.00
7309;BME280;3695;53.330;9.876;2022-08-11T12:26:41;161001.72;;;28.02;100.00
7309;BME280;3695;53.330;9.876;2022-08-11T12:29:26;161072.81;;;28.29;100.00
7309;BME280;3695;53.330;9.876;2022-08-11T12:31:55;161034.63;;;28.14;100.00
7309;BME280;3695;53.330;9.876;2022-08-11T12:34:26;161104.44;;;28.41;100.00
7309;BME280;3695;53.330;9.876;2022-08-11T12:36:56;161184.69;;;28.72;100.00
7309;BME280;3695;53.330;9.876;2022-08-11T12:39:27;161113.63;;;28.45;100.00
7309;BME280;3695;53.330;9.876;2022-08-11T12:42:16;161182.06;;;28.71;100.00
7309;BME280;3695;53.330;9.876;2022-08-11T12:45:02;161230.84;;;28.90;100.00
7309;BME280;3695;53.330;9.876;2022-08-11T12:47:50;161163.63;;;28.64;100.00
7309;BME280;3695;53.330;9.876;2022-08-11T12:50:36;161278.22;;;29.08;100.00
7309;BME280;3695;53.330;9.876;2022-08-11T12:53:23;161253.22;;;28.99;96.21
7309;BME280;3695;53.330;9.876;2022-08-11T12:55:52;161308.47;;;29.20;100.00
7309;BME280;3695;53.330;9.876;2022-08-11T12:58:39;161192.59;;;28.75;95.81
7309;BME280;3695;53.330;9.876;2022-08-11T13:01:07;161242.69;;;28.95;94.81
7309;BME280;3695;53.330;9.876;2022-08-11T13:03:51;161348.03;;;29.35;93.55
7309;BME280;3695;53.330;9.876;2022-08-11T13:06:37;161321.63;;;29.25;97.64
7309;BME280;3695;53.330;9.876;2022-08-11T13:09:04;161222.94;;;28.87;90.35
7309;BME280;3695;53.330;9.876;2022-08-11T13:11:31;161321.63;;;29.25;96.87
7309;BME280;3695;53.330;9.876;2022-08-11T13:14:16;161303.22;;;29.18;92.30
7309;BME280;3695;53.330;9.876;2022-08-11T13:16:43;161416.50;;;29.62;92.24
7309;BME280;3695;53.330;9.876;2022-08-11T13:19:29;161395.44;;;29.54;88.99
7309;BME280;3695;53.330;9.876;2022-08-11T13:21:57;161457.31;;;29.77;86.07
7309;BME280;3695;53.330;9.876;2022-08-11T13:24:25;161521.94;;;30.02;85.62
7309;BME280;3695;53.330;9.876;2022-08-11T13:26:52;161463.94;;;29.80;86.02
7309;BME280;3695;53.330;9.876;2022-08-11T13:29:22;161521.94;;;30.02;85.89
7309;BME280;3695;53.330;9.876;2022-08-11T13:31:50;161521.94;;;30.02;82.56
7309;BME280;3695;53.330;9.876;2022-08-11T13:34:19;161411.25;;;29.60;83.98
7309;BME280;3695;53.330;9.876;2022-08-11T13:36:48;161532.47;;;30.06;87.99
7309;BME280;3695;53.330;9.876;2022-08-11T13:39:17;161450.72;;;29.75;82.39
7309;BME280;3695;53.330;9.876;2022-08-11T13:41:44;161413.88;;;29.61;81.17
7309;BME280;3695;53.330;9.876;2022-08-11T13:44:13;161478.44;;;29.86;81.32
7309;BME280;3695;53.330;9.876;2022-08-11T13:46:41;161508.72;;;29.97;82.37
7309;BME280;3695;53.330;9.876;2022-08-11T13:49:09;161539.03;;;30.09;82.61
7309;BME280;3695;53.330;9.876;2022-08-11T13:51:37;161636.53;;;30.47;82.50
7309;BME280;3695;53.330;9.876;2022-08-11T13:54:06;161582.50;;;30.26;77.91
7309;BME280;3695;53.330;9.876;2022-08-11T13:56:37;161589.13;;;30.28;77.70
7309;BME280;3695;53.330;9.876;2022-08-11T13:59:05;161635.22;;;30.46;77.72
7309;BME280;3695;53.330;9.876;2022-08-11T14:01:34;161661.56;;;30.56;80.99
7309;BME280;3695;53.330;9.876;2022-08-11T14:04:07;161644.44;;;30.50;77.30
7309;BME280;3695;53.330;9.876;2022-08-11T14:06:35;161719.59;;;30.79;76.43
7309;BME280;3695;53.330;9.876;2022-08-11T14:09:07;161706.38;;;30.74;76.37
7309;BME280;3695;53.330;9.876;2022-08-11T14:11:37;161626.00;;;30.43;72.98
7309;BME280;3695;53.330;9.876;2022-08-11T14:14:25;161764.41;;;30.96;86.23
7309;BME280;3695;53.330;9.876;2022-08-11T14:16:55;161713.03;;;30.76;75.57
7309;BME280;3695;53.330;9.876;2022-08-11T14:19:24;161575.91;;;30.23;72.25
7309;BME280;3695;53.330;9.876;2022-08-11T14:21:52;161774.94;;;31.00;74.08
7309;BME280;3695;53.330;9.876;2022-08-11T14:24:32;161728.84;;;30.82;73.23
7309;BME280;3695;53.330;9.876;2022-08-11T14:27:01;161772.31;;;30.99;72.33
7309;BME280;3695;53.330;9.876;2022-08-11T14:29:28;161868.56;;;31.36;72.49
7309;BME280;3695;53.330;9.876;2022-08-11T14:31:58;161838.25;;;31.24;70.97
7309;BME280;3695;53.330;9.876;2022-08-11T14:34:27;161861.97;;;31.34;70.00